createdAt,value
2022-08-16T00:01:07.484Z,5.10
2022-08-16T00:03:41.042Z,4.85
2022-08-16T00:06:15.567Z,4.60
2022-08-16T00:08:48.028Z,4.70
2022-08-16T00:11:22.574Z,4.87
2022-08-16T00:13:56.118Z,4.30
2022-08-16T00:17:06.472Z,4.37
2022-08-16T00:19:07.265Z,5.00
2022-08-16T00:21:40.310Z,4.28
2022-08-16T00:24:13.648Z,5.08
2022-08-16T00:26:47.900Z,4.58
2022-08-16T00:31:59.318Z,4.78
2022-08-16T00:37:03.784Z,4.80
2022-08-16T00:39:36.974Z,4.95
2022-08-16T00:42:11.029Z,4.85
2022-08-16T00:44:47.305Z,5.22
2022-08-16T00:47:21.838Z,5.58
2022-08-16T00:49:56.302Z,5.30
2022-08-16T00:52:30.869Z,5.53
2022-08-16T00:55:04.550Z,5.45
2022-08-16T00:57:58.808Z,5.35
2022-08-16T01:00:20.145Z,5.50
2022-08-16T01:02:49.223Z,5.65
2022-08-16T01:05:23.848Z,4.80
2022-08-16T01:07:58.628Z,5.28
2022-08-16T01:10:33.658Z,4.78
2022-08-16T01:16:02.952Z,5.30
2022-08-16T01:18:49.834Z,5.55
2022-08-16T01:21:48.510Z,5.00
2022-08-16T01:24:53.525Z,5.20
2022-08-16T01:27:22.501Z,4.70
2022-08-16T01:30:19.737Z,5.65
2022-08-16T01:33:01.923Z,5.08
2022-08-16T01:35:35.107Z,4.85
2022-08-16T01:38:29.183Z,4.65
2022-08-16T01:41:09.641Z,4.83
2022-08-16T01:43:44.235Z,4.97
2022-08-16T01:46:39.547Z,5.08
2022-08-16T01:49:45.392Z,4.60
2022-08-16T01:52:30.258Z,4.60
2022-08-16T01:55:01.446Z,5.05
2022-08-16T01:57:35.547Z,5.35
2022-08-16T02:00:19.166Z,4.83
2022-08-16T02:02:52.490Z,5.40
2022-08-16T02:05:23.683Z,5.95
2022-08-16T02:07:55.974Z,5.67
2022-08-16T02:10:28.816Z,5.62
2022-08-16T02:13:02.331Z,4.95
2022-08-16T02:15:40.161Z,5.08
2022-08-16T02:18:12.421Z,5.30
2022-08-16T02:20:49.178Z,4.95
2022-08-16T02:23:22.414Z,5.40
2022-08-16T02:25:54.944Z,5.70
2022-08-16T02:28:28.798Z,5.47
2022-08-16T02:31:06.499Z,5.17
2022-08-16T02:33:43.876Z,5.45
2022-08-16T02:36:47.147Z,5.80
2022-08-16T02:41:23.694Z,6.10
2022-08-16T02:43:58.668Z,5.55
2022-08-16T02:46:33.681Z,5.13
2022-08-16T02:49:08.440Z,6.12
2022-08-16T02:51:41.920Z,5.87
2022-08-16T02:54:16.812Z,5.50
2022-08-16T02:56:51.030Z,5.62
2022-08-16T02:59:26.575Z,6.12
2022-08-16T03:02:01.037Z,5.92
2022-08-16T03:04:50.551Z,5.47
2022-08-16T03:12:30.224Z,6.10
2022-08-16T03:14:56.514Z,5.75
2022-08-16T03:17:32.317Z,6.15
2022-08-16T03:20:06.326Z,5.92
2022-08-16T03:22:40.574Z,5.50
2022-08-16T03:25:17.223Z,6.72
2022-08-16T03:27:54.439Z,6.72
2022-08-16T03:30:50.407Z,6.17
2022-08-16T03:33:23.504Z,6.05
2022-08-16T03:36:29.912Z,6.65
2022-08-16T03:38:36.878Z,6.05
2022-08-16T03:41:17.196Z,7.15
2022-08-16T03:43:51.034Z,6.72
2022-08-16T03:46:45.065Z,6.17
2022-08-16T03:48:57.598Z,7.12
2022-08-16T03:51:30.377Z,6.25
2022-08-16T03:54:12.566Z,7.10
2022-08-16T03:56:57.842Z,6.67
2022-08-16T03:59:17.813Z,7.65
2022-08-16T04:01:53.745Z,7.42
2022-08-16T04:04:33.550Z,7.65
2022-08-16T04:07:00.833Z,6.28
2022-08-16T04:09:38.293Z,7.05
2022-08-16T04:12:52.181Z,6.00
2022-08-16T04:14:48.243Z,6.80
2022-08-16T04:17:21.159Z,6.45
2022-08-16T04:19:58.509Z,5.95
2022-08-16T04:22:29.864Z,7.05
2022-08-16T04:27:55.697Z,6.78
2022-08-16T04:30:32.334Z,7.17
2022-08-16T04:32:53.486Z,6.42
2022-08-16T04:35:34.017Z,6.20
2022-08-16T04:38:11.002Z,6.85
2022-08-16T04:40:39.479Z,6.65
2022-08-16T04:43:12.422Z,6.83
2022-08-16T04:45:47.637Z,6.92
2022-08-16T04:48:32.399Z,7.72
2022-08-16T04:51:00.467Z,6.92
2022-08-16T04:53:34.696Z,6.85
2022-08-16T04:56:11.578Z,7.15
2022-08-16T04:58:45.702Z,6.35
2022-08-16T05:01:17.513Z,6.12
2022-08-16T05:04:00.351Z,6.78
2022-08-16T05:06:42.032Z,6.92
2022-08-16T05:09:00.504Z,6.05
2022-08-16T05:11:33.525Z,5.85
2022-08-16T05:14:07.661Z,6.28
2022-08-16T05:19:26.252Z,6.12
2022-08-16T05:22:18.000Z,7.00
2022-08-16T05:24:46.509Z,6.08
2022-08-16T05:27:19.019Z,6.40
2022-08-16T05:30:00.678Z,6.20
2022-08-16T05:32:32.817Z,6.40
2022-08-16T05:37:39.804Z,5.78
2022-08-16T05:40:36.099Z,5.92
2022-08-16T05:43:11.969Z,5.78
2022-08-16T05:45:45.585Z,5.85
2022-08-16T05:48:20.852Z,5.97
2022-08-16T05:50:56.812Z,5.58
2022-08-16T05:53:29.877Z,5.70
2022-08-16T05:56:12.040Z,6.00
2022-08-16T05:58:47.804Z,6.10
2022-08-16T06:01:20.382Z,5.83
2022-08-16T06:03:57.059Z,6.12
2022-08-16T06:06:33.060Z,5.72
2022-08-16T06:09:06.843Z,5.33
2022-08-16T06:11:43.188Z,5.45
2022-08-16T06:14:16.706Z,6.17
2022-08-16T06:16:50.627Z,5.42
2022-08-16T06:19:24.706Z,5.03
2022-08-16T06:22:00.354Z,6.08
2022-08-16T06:24:54.244Z,5.90
2022-08-16T06:27:10.465Z,7.47
2022-08-16T06:29:49.955Z,6.22
2022-08-16T06:32:27.121Z,5.90
2022-08-16T06:35:02.053Z,6.10
2022-08-16T06:37:37.183Z,5.47
2022-08-16T06:40:12.904Z,5.80
2022-08-16T06:42:53.950Z,6.50
2022-08-16T06:45:43.489Z,6.10
2022-08-16T06:48:18.929Z,6.33
2022-08-16T06:53:25.073Z,6.15
2022-08-16T06:56:04.148Z,6.28
2022-08-16T06:58:40.153Z,6.25
2022-08-16T07:01:16.061Z,6.75
2022-08-16T07:03:55.116Z,6.28
2022-08-16T07:06:26.525Z,7.03
2022-08-16T07:09:02.195Z,7.10
2022-08-16T07:11:46.124Z,7.50
2022-08-16T07:16:50.093Z,7.33
2022-08-16T07:19:22.988Z,7.92
2022-08-16T07:21:59.792Z,8.05
2022-08-16T07:24:32.898Z,9.30
2022-08-16T07:27:12.522Z,8.45
2022-08-16T07:29:45.953Z,8.05
2022-08-16T07:32:29.093Z,8.53
2022-08-16T07:34:55.759Z,7.80
2022-08-16T07:37:28.333Z,7.80
2022-08-16T07:40:11.111Z,8.23
2022-08-16T07:42:38.918Z,7.95
2022-08-16T07:45:13.374Z,7.22
2022-08-16T07:47:51.171Z,8.20
2022-08-16T07:52:57.279Z,8.13
2022-08-16T07:58:06.945Z,7.50
2022-08-16T08:00:41.398Z,7.12
2022-08-16T08:03:15.473Z,7.75
2022-08-16T08:05:48.218Z,7.67
2022-08-16T08:08:49.819Z,7.35
2022-08-16T08:11:01.940Z,8.23
2022-08-16T08:13:41.951Z,8.90
2022-08-16T08:16:18.989Z,7.62
2022-08-16T08:18:50.231Z,6.58
2022-08-16T08:21:59.509Z,6.10
2022-08-16T08:24:01.655Z,6.85
2022-08-16T08:26:34.685Z,7.25
2022-08-16T08:29:08.540Z,8.25
2022-08-16T08:31:42.514Z,8.20
2022-08-16T08:34:17.895Z,7.72
2022-08-16T08:36:54.139Z,7.40
2022-08-16T08:39:36.508Z,8.07
2022-08-16T08:42:10.749Z,7.33
2022-08-16T08:44:43.855Z,6.95
2022-08-16T08:47:19.239Z,7.35
2022-08-16T08:49:56.036Z,7.15
2022-08-16T08:52:44.494Z,8.00
2022-08-16T08:57:47.699Z,6.10
2022-08-16T09:00:26.999Z,6.58
2022-08-16T09:02:59.787Z,6.60
2022-08-16T09:05:37.263Z,7.45
2022-08-16T09:08:12.692Z,7.72
2022-08-16T09:10:56.770Z,7.35
2022-08-16T09:13:27.743Z,7.12
2022-08-16T09:16:03.297Z,6.55
2022-08-16T09:18:36.969Z,6.42
2022-08-16T09:21:11.480Z,5.75
2022-08-16T09:23:45.738Z,9.73
2022-08-16T09:26:45.399Z,8.28
2022-08-16T09:29:16.162Z,8.40
2022-08-16T09:31:30.457Z,8.40
2022-08-16T09:34:04.788Z,7.10
2022-08-16T09:36:46.211Z,8.15
2022-08-16T09:39:16.039Z,8.35
2022-08-16T09:41:53.319Z,7.03
2022-08-16T09:45:12.161Z,7.78
2022-08-16T09:47:02.840Z,7.95
2022-08-16T09:49:37.102Z,7.95
2022-08-16T09:52:10.587Z,7.25
2022-08-16T09:54:44.378Z,8.08
2022-08-16T09:57:18.277Z,7.50
2022-08-16T09:59:56.214Z,7.12
2022-08-16T10:02:27.987Z,7.00
2022-08-16T10:05:00.824Z,8.00
2022-08-16T10:07:44.734Z,6.58
2022-08-16T10:10:11.796Z,7.25
2022-08-16T10:12:55.576Z,7.70
2022-08-16T10:15:30.158Z,7.80
2022-08-16T10:18:41.038Z,7.53
2022-08-16T10:20:42.919Z,7.15
2022-08-16T10:23:19.221Z,7.92
2022-08-16T10:27:19.013Z,7.58
2022-08-16T10:28:30.399Z,7.70
2022-08-16T10:31:04.356Z,6.58
2022-08-16T10:33:40.312Z,7.10
2022-08-16T10:36:12.621Z,7.22
2022-08-16T10:38:46.818Z,7.50
2022-08-16T10:41:25.193Z,7.50
2022-08-16T10:43:55.337Z,8.10
2022-08-16T10:46:39.322Z,7.47
2022-08-16T10:49:06.827Z,7.92
2022-08-16T10:52:00.890Z,7.62
2022-08-16T10:56:55.595Z,7.22
2022-08-16T11:07:08.305Z,7.03
2022-08-16T11:09:43.746Z,6.80
2022-08-16T11:12:15.347Z,7.28
2022-08-16T11:17:22.412Z,7.47
2022-08-16T11:20:01.205Z,7.58
2022-08-16T11:22:47.325Z,7.55
2022-08-16T11:25:56.371Z,7.80
2022-08-16T11:27:40.701Z,7.92
2022-08-16T11:30:19.887Z,7.95
2022-08-16T11:32:50.122Z,8.10
2022-08-16T11:38:47.639Z,8.20
2022-08-16T11:40:52.575Z,8.45
2022-08-16T11:43:34.557Z,8.43
2022-08-16T11:46:45.410Z,8.50
2022-08-16T11:48:48.611Z,13.75
2022-08-16T11:51:21.955Z,13.60
2022-08-16T11:53:55.163Z,10.43
2022-08-16T11:56:39.530Z,9.43
2022-08-16T11:59:03.726Z,8.08
2022-08-16T12:01:44.465Z,9.38
2022-08-16T12:06:45.595Z,8.93
2022-08-16T12:09:20.156Z,9.23
2022-08-16T12:11:54.156Z,9.78
2022-08-16T12:14:27.600Z,9.43
2022-08-16T12:17:05.768Z,8.88
2022-08-16T12:19:39.578Z,9.78
2022-08-16T12:22:19.729Z,10.43
2022-08-16T12:24:51.186Z,9.00
2022-08-16T12:29:58.725Z,10.33
2022-08-16T12:35:05.793Z,9.48
2022-08-16T12:37:40.014Z,10.15
2022-08-16T12:42:52.687Z,9.70
2022-08-16T12:45:25.875Z,9.38
2022-08-16T12:48:33.758Z,9.10
2022-08-16T12:50:51.407Z,9.75
2022-08-16T12:53:24.045Z,9.68
2022-08-16T12:55:56.932Z,8.80
2022-08-16T12:58:50.012Z,9.80
2022-08-16T13:01:06.146Z,9.55
2022-08-16T13:03:40.587Z,8.83
2022-08-16T13:06:20.073Z,8.10
2022-08-16T13:08:51.679Z,8.43
2022-08-16T13:11:37.811Z,8.13
2022-08-16T13:14:19.245Z,7.72
2022-08-16T13:16:44.990Z,7.50
2022-08-16T13:19:18.029Z,7.28
2022-08-16T13:21:54.005Z,7.12
2022-08-16T13:24:26.391Z,7.05
2022-08-16T13:26:58.967Z,6.60
2022-08-16T13:29:39.964Z,6.30
2022-08-16T13:32:08.330Z,6.33
2022-08-16T13:34:41.743Z,6.50
2022-08-16T13:37:14.555Z,6.85
2022-08-16T13:39:48.983Z,7.17
2022-08-16T13:42:23.136Z,6.60
2022-08-16T13:44:56.409Z,6.75
2022-08-16T13:47:30.465Z,7.37
2022-08-16T13:50:03.703Z,7.92
2022-08-16T13:52:40.024Z,7.90
2022-08-16T13:55:17.573Z,7.87
2022-08-16T13:58:35.087Z,8.28
2022-08-16T14:00:23.126Z,8.00
2022-08-16T14:02:59.208Z,7.80
2022-08-16T14:05:31.288Z,8.03
2022-08-16T14:08:05.282Z,7.40
2022-08-16T14:10:38.211Z,7.17
2022-08-16T14:13:19.955Z,6.60
2022-08-16T14:15:47.626Z,6.55
2022-08-16T14:18:21.064Z,7.22
2022-08-16T14:20:53.899Z,7.05
2022-08-16T14:23:26.480Z,6.60
2022-08-16T14:26:00.014Z,6.72
2022-08-16T14:28:32.881Z,7.35
2022-08-16T14:31:07.874Z,7.28
2022-08-16T14:33:40.737Z,7.60
2022-08-16T14:36:18.848Z,7.00
2022-08-16T14:38:49.079Z,7.37
2022-08-16T14:41:21.756Z,7.30
2022-08-16T14:43:56.411Z,7.80
2022-08-16T14:46:29.805Z,7.93
2022-08-16T14:49:02.619Z,8.78
2022-08-16T14:51:35.661Z,8.20
2022-08-16T14:54:11.292Z,8.60
2022-08-16T14:56:46.929Z,8.45
2022-08-16T14:59:19.078Z,8.48
2022-08-16T15:01:58.921Z,8.25
2022-08-16T15:04:37.816Z,8.58
2022-08-16T15:07:05.774Z,8.43
2022-08-16T15:09:43.836Z,8.40
2022-08-16T15:12:26.905Z,8.80
2022-08-16T15:14:56.297Z,8.10
2022-08-16T15:17:33.881Z,9.00
2022-08-16T15:20:08.794Z,7.67
2022-08-16T15:22:47.967Z,7.92
2022-08-16T15:25:35.197Z,8.50
2022-08-16T15:28:23.591Z,7.45
2022-08-16T15:30:58.256Z,8.43
2022-08-16T15:33:22.753Z,8.18
2022-08-16T15:35:58.515Z,7.92
2022-08-16T15:38:43.556Z,7.30
2022-08-16T15:43:39.799Z,9.90
2022-08-16T15:46:35.790Z,10.25
2022-08-16T15:49:09.672Z,11.70
2022-08-16T15:51:45.446Z,11.90
2022-08-16T15:54:30.058Z,10.63
2022-08-16T15:56:56.214Z,11.15
2022-08-16T15:59:28.776Z,10.55
2022-08-16T16:02:02.932Z,10.95
2022-08-16T16:04:35.722Z,10.18
2022-08-16T16:07:09.988Z,10.55
2022-08-16T16:09:42.841Z,11.15
2022-08-16T16:12:50.131Z,10.53
2022-08-16T16:14:52.404Z,10.72
2022-08-16T16:17:25.792Z,10.88
2022-08-16T16:19:59.990Z,9.90
2022-08-16T16:22:33.934Z,12.63
2022-08-16T16:25:08.229Z,12.15
2022-08-16T16:27:42.578Z,9.38
2022-08-16T16:30:37.579Z,9.00
2022-08-16T16:32:50.196Z,9.33
2022-08-16T16:35:25.339Z,9.53
2022-08-16T16:40:32.701Z,9.83
2022-08-16T16:43:06.454Z,10.60
2022-08-16T16:45:41.136Z,10.30
2022-08-16T16:48:14.601Z,11.08
2022-08-16T16:50:48.809Z,9.65
2022-08-16T16:53:23.170Z,10.00
2022-08-16T16:55:56.975Z,9.85
2022-08-16T16:58:53.418Z,9.25
2022-08-16T17:01:24.046Z,11.80
2022-08-16T17:06:29.370Z,9.60
2022-08-16T17:09:01.939Z,9.00
2022-08-16T17:11:37.500Z,7.90
2022-08-16T17:14:17.412Z,8.10
2022-08-16T17:16:46.891Z,7.17
2022-08-16T17:19:21.865Z,7.45
2022-08-16T17:22:05.084Z,7.70
2022-08-16T17:24:40.111Z,8.20
2022-08-16T17:27:18.114Z,8.25
2022-08-16T17:29:51.394Z,7.60
2022-08-16T17:32:33.781Z,7.62
2022-08-16T17:35:07.146Z,8.03
2022-08-16T17:40:47.583Z,7.58
2022-08-16T17:43:02.426Z,7.33
2022-08-16T17:45:36.129Z,7.58
2022-08-16T17:48:08.654Z,7.47
2022-08-16T17:50:41.969Z,7.55
2022-08-16T17:53:14.860Z,6.65
2022-08-16T17:55:50.581Z,7.15
2022-08-16T17:58:25.046Z,7.20
2022-08-16T18:01:00.338Z,8.43
2022-08-16T18:04:07.807Z,8.15
2022-08-16T18:06:13.534Z,8.25
2022-08-16T18:11:25.696Z,7.53
2022-08-16T18:13:57.516Z,8.75
2022-08-16T18:16:31.508Z,8.00
2022-08-16T18:19:05.033Z,7.80
2022-08-16T18:21:55.705Z,8.53
2022-08-16T18:24:31.391Z,8.35
2022-08-16T18:27:26.053Z,8.00
2022-08-16T18:29:38.048Z,8.60
2022-08-16T18:32:12.284Z,8.23
2022-08-16T18:34:45.264Z,8.30
2022-08-16T18:37:17.927Z,8.15
2022-08-16T18:39:50.399Z,8.00
2022-08-16T18:42:22.884Z,8.15
2022-08-16T18:44:56.410Z,9.65
2022-08-16T18:47:28.986Z,9.50
2022-08-16T18:50:02.713Z,10.25
2022-08-16T18:52:36.422Z,9.67
2022-08-16T18:55:13.949Z,8.00
2022-08-16T18:57:44.631Z,16.97
2022-08-16T19:00:18.173Z,9.67
2022-08-16T19:02:59.129Z,8.10
2022-08-16T19:05:29.394Z,8.83
2022-08-16T19:08:02.567Z,8.53
2022-08-16T19:10:36.639Z,8.33
2022-08-16T19:13:14.016Z,7.33
2022-08-16T19:15:47.950Z,8.38
2022-08-16T19:18:20.862Z,7.97
2022-08-16T19:20:53.590Z,7.12
2022-08-16T19:23:29.416Z,7.80
2022-08-16T19:26:06.060Z,6.97
2022-08-16T19:28:50.466Z,7.40
2022-08-16T19:31:26.138Z,7.67
2022-08-16T19:33:59.170Z,7.65
2022-08-16T19:36:36.947Z,7.10
2022-08-16T19:39:15.924Z,7.22
2022-08-16T19:41:50.575Z,7.10
2022-08-16T19:44:24.453Z,8.15
2022-08-16T19:46:58.999Z,10.85
2022-08-16T19:49:31.615Z,8.60
2022-08-16T19:52:25.677Z,9.00
2022-08-16T19:55:03.462Z,9.58
2022-08-16T19:57:37.073Z,8.65
2022-08-16T20:00:15.541Z,7.63
2022-08-16T20:02:52.538Z,8.53
2022-08-16T20:05:34.552Z,7.95
2022-08-16T20:08:08.204Z,7.28
2022-08-16T20:10:43.374Z,7.30
2022-08-16T20:13:22.090Z,7.10
2022-08-16T20:15:54.897Z,7.40
2022-08-16T20:18:27.464Z,7.72
2022-08-16T20:21:00.316Z,6.95
2022-08-16T20:23:34.559Z,7.30
2022-08-16T20:26:08.602Z,7.00
2022-08-16T20:28:52.472Z,9.10
2022-08-16T20:31:17.529Z,8.58
2022-08-16T20:33:51.563Z,7.50
2022-08-16T20:36:24.726Z,7.37
2022-08-16T20:38:59.580Z,7.97
2022-08-16T20:41:32.597Z,6.72
2022-08-16T20:44:05.988Z,7.40
2022-08-16T20:46:40.361Z,13.13
2022-08-16T20:49:13.154Z,8.58
2022-08-16T20:51:47.011Z,8.23
2022-08-16T20:54:21.673Z,7.65
2022-08-16T20:56:55.403Z,7.55
2022-08-16T20:59:28.990Z,7.87
2022-08-16T21:02:02.071Z,7.70
2022-08-16T21:04:35.870Z,7.12
2022-08-16T21:07:09.535Z,7.55
2022-08-16T21:09:42.012Z,6.43
2022-08-16T21:12:18.001Z,8.75
2022-08-16T21:14:51.627Z,7.78
2022-08-16T21:17:25.067Z,7.72
2022-08-16T21:19:57.613Z,7.27
2022-08-16T21:22:30.429Z,7.47
2022-08-16T21:25:02.972Z,7.58
2022-08-16T21:27:39.464Z,6.85
2022-08-16T21:30:13.994Z,7.22
2022-08-16T21:32:48.539Z,7.33
2022-08-16T21:35:21.139Z,6.85
2022-08-16T21:38:01.020Z,6.85
2022-08-16T21:40:31.365Z,6.78
2022-08-16T21:43:13.754Z,6.80
2022-08-16T21:45:48.126Z,6.72
2022-08-16T21:48:34.971Z,6.85
2022-08-16T21:50:58.750Z,7.20
2022-08-16T21:53:32.131Z,7.17
2022-08-16T21:56:06.097Z,7.85
2022-08-16T21:58:39.132Z,7.60
2022-08-16T22:01:11.580Z,6.90
2022-08-16T22:03:44.144Z,7.12
2022-08-16T22:06:17.058Z,7.80
2022-08-16T22:08:51.137Z,10.15
2022-08-16T22:11:25.862Z,9.58
2022-08-16T22:13:59.488Z,8.15
2022-08-16T22:16:35.402Z,7.40
2022-08-16T22:19:08.440Z,7.75
2022-08-16T22:21:41.099Z,7.55
2022-08-16T22:24:14.116Z,8.13
2022-08-16T22:26:47.208Z,6.90
2022-08-16T22:29:19.690Z,7.47
2022-08-16T22:31:52.193Z,7.08
2022-08-16T22:34:26.371Z,7.10
2022-08-16T22:36:58.919Z,7.47
2022-08-16T22:39:31.685Z,6.78
2022-08-16T22:42:09.259Z,6.72
2022-08-16T22:44:46.342Z,7.20
2022-08-16T22:47:17.409Z,8.13
2022-08-16T22:49:50.711Z,7.15
2022-08-16T22:52:52.741Z,6.85
2022-08-16T22:54:57.883Z,7.05
2022-08-16T22:57:30.301Z,7.28
2022-08-16T23:00:02.967Z,6.62
2022-08-16T23:02:36.473Z,7.78
2022-08-16T23:05:10.308Z,6.97
2022-08-16T23:07:43.052Z,7.03
2022-08-16T23:10:16.117Z,6.75
2022-08-16T23:12:51.907Z,7.62
2022-08-16T23:15:25.034Z,7.50
2022-08-16T23:17:58.725Z,6.78
2022-08-16T23:20:31.232Z,6.53
2022-08-16T23:23:21.247Z,6.70
2022-08-16T23:25:41.066Z,6.83
2022-08-16T23:28:13.985Z,7.08
2022-08-16T23:30:46.376Z,7.08
2022-08-16T23:33:20.370Z,7.00
2022-08-16T23:35:56.783Z,7.05
2022-08-16T23:38:37.474Z,7.20
2022-08-16T23:41:11.876Z,7.78
2022-08-16T23:43:45.626Z,6.50
2022-08-16T23:46:19.661Z,6.75
2022-08-16T23:49:56.847Z,7.53
2022-08-16T23:51:30.124Z,6.75
2022-08-16T23:54:02.682Z,6.72
2022-08-16T23:56:40.555Z,7.08
2022-08-16T23:59:11.398Z,6.55
